Time;durP1;ratioP1;P1;durP2;ratioP2;P2;SDS_P1;SDS_P2;PMS_P1;PMS_P2;Temp;Humidity;BMP_temperature;BMP_pressure;BME280_temperature;BME280_humidity;BME280_pressure;Samples;Min_cycle;Max_cycle;Signal;HPM_P1;HPM_P2
2021/01/22 00:01:13;;;;;;;1.35;0.40;;;11.90;73.00;;;;;;4938278;29;20131;-91
2021/01/22 00:03:40;;;;;;;1.75;0.80;;;11.90;73.30;;;;;;4951595;29;20055;-91
2021/01/22 00:06:06;;;;;;;1.70;0.50;;;11.90;74.20;;;;;;4940634;28;20051;-91
2021/01/22 00:08:33;;;;;;;1.25;0.50;;;11.70;75.20;;;;;;4930904;29;20564;-91
2021/01/22 00:11:00;;;;;;;2.80;0.63;;;11.80;76.10;;;;;;4940984;29;20138;-91
2021/01/22 00:13:27;;;;;;;1.38;0.52;;;11.70;76.10;;;;;;4933844;29;20565;-90
2021/01/22 00:15:54;;;;;;;1.23;0.60;;;11.70;77.50;;;;;;4909815;29;20143;-91
2021/01/22 00:18:21;;;;;;;4.90;0.63;;;11.60;77.60;;;;;;4948951;29;20413;-91
2021/01/22 00:20:48;;;;;;;2.90;0.65;;;11.60;78.40;;;;;;4938997;29;20134;-91
2021/01/22 00:23:15;;;;;;;1.85;0.60;;;11.50;79.30;;;;;;4937775;29;20131;-90
2021/01/22 00:25:42;;;;;;;1.75;0.68;;;11.50;80.00;;;;;;4943112;29;20130;-91
2021/01/22 00:28:08;;;;;;;2.25;0.70;;;11.50;80.50;;;;;;4929055;29;20130;-91
2021/01/22 00:30:35;;;;;;;1.60;0.60;;;11.40;80.90;;;;;;4950533;29;20130;-91
2021/01/22 00:33:02;;;;;;;1.55;0.60;;;11.40;81.30;;;;;;4938590;29;20083;-92
2021/01/22 00:35:31;;;;;;;2.13;0.77;;;11.30;81.50;;;;;;4942717;29;20481;-92
2021/01/22 00:37:58;;;;;;;1.60;0.50;;;11.40;81.40;;;;;;4947818;29;20182;-92
2021/01/22 00:40:24;;;;;;;1.52;0.60;;;11.40;81.30;;;;;;4949029;29;20051;-91
2021/01/22 00:42:51;;;;;;;2.83;0.80;;;11.30;81.40;;;;;;4940320;29;20825;-90
2021/01/22 00:45:17;;;;;;;1.50;0.70;;;11.40;81.10;;;;;;4936807;29;20075;-93
2021/01/22 00:47:44;;;;;;;1.40;0.57;;;11.30;80.40;;;;;;4943820;29;20145;-93
2021/01/22 00:50:12;;;;;;;1.08;0.50;;;11.30;79.80;;;;;;4946430;29;20091;-92
2021/01/22 00:52:40;;;;;;;1.65;0.57;;;11.40;79.00;;;;;;4950953;29;20086;-93
2021/01/22 00:55:08;;;;;;;1.42;0.40;;;11.50;78.10;;;;;;4937642;29;20524;-93
2021/01/22 00:57:35;;;;;;;1.48;0.40;;;11.40;77.80;;;;;;4941765;29;20052;-93
2021/01/22 01:00:03;;;;;;;2.05;0.50;;;11.30;77.90;;;;;;4952665;29;20126;-90
2021/01/22 01:02:29;;;;;;;1.73;0.40;;;11.30;78.20;;;;;;4955696;29;20137;-90
2021/01/22 01:04:56;;;;;;;1.17;0.43;;;11.20;78.20;;;;;;4940613;29;20060;-93
2021/01/22 01:07:23;;;;;;;0.65;0.40;;;11.40;77.60;;;;;;4918222;29;20066;-92
2021/01/22 01:09:50;;;;;;;1.55;0.50;;;11.30;77.80;;;;;;4904459;29;20126;-94
2021/01/22 01:12:17;;;;;;;1.33;0.40;;;11.40;77.30;;;;;;4947296;29;20462;-94
2021/01/22 01:14:43;;;;;;;0.60;0.38;;;11.30;77.30;;;;;;4953875;29;20134;-93
2021/01/22 01:17:10;;;;;;;0.90;0.40;;;11.30;76.90;;;;;;4945157;29;20134;-94
2021/01/22 01:19:37;;;;;;;1.88;0.50;;;11.50;77.00;;;;;;4943894;29;20090;-92
2021/01/22 01:22:04;;;;;;;1.95;0.57;;;11.40;76.90;;;;;;4936528;29;20051;-93
2021/01/22 01:24:30;;;;;;;1.55;0.50;;;11.40;77.50;;;;;;4948983;29;20473;-92
2021/01/22 01:26:58;;;;;;;1.10;0.55;;;11.30;77.60;;;;;;4935803;29;20066;-91
2021/01/22 01:29:25;;;;;;;1.92;0.70;;;11.40;78.10;;;;;;4954915;29;20146;-91
2021/01/22 01:31:51;;;;;;;2.40;0.60;;;11.30;77.80;;;;;;4930083;29;20121;-93
2021/01/22 01:34:18;;;;;;;1.92;0.50;;;11.40;77.80;;;;;;4947528;29;20086;-93
2021/01/22 01:36:45;;;;;;;1.30;0.45;;;11.40;78.00;;;;;;4940905;29;20153;-93
2021/01/22 01:39:11;;;;;;;1.42;0.65;;;11.40;77.90;;;;;;4951784;29;20082;-92
2021/01/22 01:41:38;;;;;;;1.63;0.63;;;11.40;77.80;;;;;;4942623;29;20055;-91
2021/01/22 01:44:06;;;;;;;1.15;0.50;;;11.10;78.20;;;;;;4937846;29;20146;-92
2021/01/22 01:46:34;;;;;;;1.80;0.70;;;11.20;78.40;;;;;;4936554;29;20051;-93
2021/01/22 01:49:01;;;;;;;1.48;0.50;;;11.30;78.60;;;;;;4944277;29;20135;-93
2021/01/22 01:51:29;;;;;;;1.58;0.60;;;11.20;78.30;;;;;;4938604;29;20130;-93
2021/01/22 01:53:56;;;;;;;2.58;0.70;;;11.20;78.60;;;;;;4948564;29;20412;-92
2021/01/22 01:56:23;;;;;;;2.22;0.60;;;11.20;78.30;;;;;;4948682;29;20701;-92
2021/01/22 01:58:50;;;;;;;1.77;0.50;;;11.20;78.20;;;;;;4953516;29;20055;-93
2021/01/22 02:01:19;;;;;;;2.92;0.50;;;11.10;77.70;;;;;;4950864;29;20474;-91
2021/01/22 02:03:46;;;;;;;2.00;0.60;;;11.20;77.60;;;;;;4942045;29;20094;-92
2021/01/22 02:06:12;;;;;;;2.97;0.77;;;11.20;77.40;;;;;;4946104;29;20138;-91
2021/01/22 02:08:40;;;;;;;2.53;0.75;;;11.10;77.30;;;;;;4954219;29;20082;-92
2021/01/22 02:11:09;;;;;;;1.60;0.40;;;11.20;77.20;;;;;;4951394;29;20126;-92
2021/01/22 02:13:37;;;;;;;2.75;0.70;;;11.20;77.10;;;;;;4948097;29;20159;-91
2021/01/22 02:16:05;;;;;;;2.88;0.65;;;11.20;76.80;;;;;;4940659;29;20043;-91
2021/01/22 02:18:33;;;;;;;3.10;0.60;;;11.10;76.60;;;;;;4934642;29;20135;-91
2021/01/22 02:21:11;;;;;;;3.88;0.88;;;11.20;76.70;;;;;;4943732;29;20154;-92
2021/01/22 02:23:40;;;;;;;1.63;0.70;;;11.20;76.00;;;;;;4946553;29;20058;-91
2021/01/22 02:26:47;;;;;;;3.47;0.88;;;11.40;75.30;;;;;;4944362;29;20048;-91
2021/01/22 02:29:16;;;;;;;3.40;0.73;;;11.10;74.90;;;;;;4941539;29;20405;-91
2021/01/22 02:31:45;;;;;;;3.33;0.80;;;11.20;74.40;;;;;;4947027;29;20055;-92
2021/01/22 02:34:16;;;;;;;2.90;0.75;;;11.20;75.00;;;;;;4935465;29;20048;-91
2021/01/22 02:36:46;;;;;;;2.47;0.70;;;11.30;74.00;;;;;;4925543;29;20129;-92
2021/01/22 02:39:17;;;;;;;3.28;0.70;;;11.30;73.60;;;;;;4949634;29;20131;-91
2021/01/22 02:41:46;;;;;;;3.83;0.95;;;11.40;73.50;;;;;;4943146;29;20119;-91
2021/01/22 02:44:13;;;;;;;4.28;0.80;;;11.40;73.00;;;;;;4940185;29;20103;-90
2021/01/22 02:46:41;;;;;;;3.90;1.08;;;11.50;72.50;;;;;;4952056;29;20138;-90
2021/01/22 02:49:07;;;;;;;4.00;0.90;;;11.50;72.70;;;;;;4947238;29;20086;-89
2021/01/22 02:51:34;;;;;;;4.07;0.93;;;11.50;72.70;;;;;;4956290;29;20138;-90
2021/01/22 02:54:00;;;;;;;3.95;0.90;;;11.50;72.40;;;;;;4948757;29;20471;-89
2021/01/22 02:56:44;;;;;;;5.80;1.02;;;11.30;73.00;;;;;;4940935;29;20066;-89
2021/01/22 02:59:41;;;;;;;3.38;0.93;;;11.40;72.60;;;;;;4943947;29;20051;-89
2021/01/22 03:02:18;;;;;;;4.38;1.00;;;11.40;72.00;;;;;;4928204;29;20051;-90
2021/01/22 03:04:44;;;;;;;4.82;1.15;;;11.40;70.90;;;;;;4943195;29;20055;-90
2021/01/22 03:07:17;;;;;;;4.40;0.90;;;11.60;69.70;;;;;;4944822;29;20138;-90
2021/01/22 03:09:46;;;;;;;6.20;0.93;;;11.50;69.90;;;;;;4950684;29;20583;-89
2021/01/22 03:12:16;;;;;;;4.60;0.90;;;11.40;69.50;;;;;;4950781;29;20056;-90
2021/01/22 03:14:44;;;;;;;4.93;1.10;;;11.40;69.70;;;;;;4926273;29;20269;-90
2021/01/22 03:17:10;;;;;;;6.10;1.00;;;11.40;69.70;;;;;;4928222;29;20569;-90
2021/01/22 03:19:43;;;;;;;6.43;1.48;;;11.40;69.30;;;;;;4917072;29;20047;-88
2021/01/22 03:22:10;;;;;;;4.03;1.08;;;11.40;69.20;;;;;;4939264;29;20138;-90
2021/01/22 03:24:36;;;;;;;5.75;1.20;;;11.40;69.30;;;;;;4949018;29;20229;-91
2021/01/22 03:27:03;;;;;;;4.55;0.70;;;11.40;69.40;;;;;;4945741;29;20065;-91
2021/01/22 03:29:31;;;;;;;5.32;1.10;;;11.30;69.40;;;;;;4943544;29;20146;-91
2021/01/22 03:31:59;;;;;;;4.55;1.20;;;11.20;69.50;;;;;;4949161;29;20125;-91
2021/01/22 03:34:26;;;;;;;4.88;0.80;;;11.30;69.40;;;;;;4959412;29;20075;-91
2021/01/22 03:36:54;;;;;;;5.47;1.25;;;11.30;69.50;;;;;;4942856;29;20552;-90
2021/01/22 03:39:22;;;;;;;3.92;0.98;;;11.20;69.50;;;;;;4951777;29;20135;-90
2021/01/22 03:41:49;;;;;;;2.92;0.75;;;11.30;69.00;;;;;;4943546;29;20135;-91
2021/01/22 03:44:16;;;;;;;6.53;0.90;;;11.30;69.30;;;;;;4955590;29;20449;-90
2021/01/22 03:46:44;;;;;;;4.13;1.30;;;11.30;69.20;;;;;;4946655;29;20059;-91
2021/01/22 03:49:11;;;;;;;4.28;0.90;;;11.30;69.80;;;;;;4948449;29;20593;-90
2021/01/22 03:51:38;;;;;;;4.68;1.15;;;11.00;70.30;;;;;;4953373;29;20461;-90
2021/01/22 03:54:06;;;;;;;3.08;0.70;;;11.20;71.00;;;;;;4941484;29;20113;-90
2021/01/22 03:56:33;;;;;;;5.90;1.17;;;11.20;71.30;;;;;;4947582;29;20146;-89
2021/01/22 03:58:59;;;;;;;4.22;0.90;;;11.00;71.40;;;;;;4953530;29;20139;-90
2021/01/22 04:01:28;;;;;;;3.70;1.00;;;11.00;71.80;;;;;;4954455;29;20576;-89
2021/01/22 04:03:55;;;;;;;4.53;1.67;;;11.00;72.40;;;;;;4951408;29;20047;-90
2021/01/22 04:06:22;;;;;;;3.78;1.08;;;10.80;72.40;;;;;;4941583;29;20047;-89
2021/01/22 04:08:49;;;;;;;2.70;1.00;;;10.90;72.80;;;;;;4956120;29;20572;-90
2021/01/22 04:11:17;;;;;;;4.85;1.10;;;10.80;72.70;;;;;;4945662;29;20048;-89
2021/01/22 04:13:44;;;;;;;2.85;1.05;;;10.80;73.10;;;;;;4943814;29;20058;-90
2021/01/22 04:16:12;;;;;;;4.57;1.10;;;10.70;73.00;;;;;;4940284;29;20602;-91
2021/01/22 04:18:39;;;;;;;5.57;1.38;;;10.70;73.10;;;;;;4950373;29;20409;-91
2021/01/22 04:21:07;;;;;;;3.75;1.00;;;10.70;73.40;;;;;;4947861;29;20438;-90
2021/01/22 04:23:33;;;;;;;4.45;1.27;;;10.60;73.70;;;;;;4943892;29;20062;-91
2021/01/22 04:26:00;;;;;;;2.92;0.95;;;10.60;73.90;;;;;;4954189;29;20134;-90
2021/01/22 04:28:27;;;;;;;2.53;0.80;;;10.50;74.30;;;;;;4939439;29;20051;-90
2021/01/22 04:30:53;;;;;;;3.67;0.77;;;10.50;74.30;;;;;;4946648;29;20142;-90
2021/01/22 04:33:20;;;;;;;4.80;0.88;;;10.40;74.70;;;;;;4947447;29;20119;-90
2021/01/22 04:35:47;;;;;;;3.78;0.93;;;10.40;75.30;;;;;;4940850;29;20456;-89
2021/01/22 04:38:14;;;;;;;2.70;0.70;;;10.40;75.60;;;;;;4945103;29;20543;-89
2021/01/22 04:40:41;;;;;;;4.82;0.85;;;10.40;75.80;;;;;;4944007;29;20220;-90
2021/01/22 04:43:09;;;;;;;3.95;0.70;;;10.40;76.10;;;;;;4946425;29;20060;-91
2021/01/22 04:45:36;;;;;;;2.47;0.70;;;10.40;76.30;;;;;;4951532;29;20147;-93
2021/01/22 04:48:05;;;;;;;3.63;1.00;;;10.40;76.30;;;;;;4955060;29;20055;-93
2021/01/22 04:50:32;;;;;;;4.13;0.80;;;10.40;76.30;;;;;;4926780;29;20426;-91
2021/01/22 04:53:03;;;;;;;4.22;0.80;;;10.30;76.70;;;;;;4915328;29;20044;-92
2021/01/22 04:55:32;;;;;;;1.20;0.50;;;10.30;76.80;;;;;;4948671;29;20047;-93
2021/01/22 04:58:03;;;;;;;1.90;0.63;;;10.40;77.00;;;;;;4956076;29;20047;-92
2021/01/22 05:00:30;;;;;;;1.58;0.45;;;10.40;77.30;;;;;;4951147;29;20052;-92
2021/01/22 05:02:57;;;;;;;2.33;0.60;;;10.30;77.20;;;;;;4912841;29;20086;-92
2021/01/22 05:05:24;;;;;;;2.78;0.75;;;10.40;77.80;;;;;;4936124;29;20071;-92
2021/01/22 05:07:51;;;;;;;2.25;0.60;;;10.40;77.70;;;;;;4953084;29;20545;-93
2021/01/22 05:10:18;;;;;;;2.85;0.82;;;10.40;77.30;;;;;;4941020;28;20053;-92
2021/01/22 05:12:45;;;;;;;2.65;0.70;;;10.50;77.50;;;;;;4948614;29;20142;-92
2021/01/22 05:15:18;;;;;;;3.15;0.88;;;10.40;77.50;;;;;;4952100;29;20224;-94
2021/01/22 05:18:08;;;;;;;1.75;0.50;;;10.40;78.10;;;;;;4943005;29;20057;-93
2021/01/22 05:20:37;;;;;;;2.30;0.40;;;10.40;77.70;;;;;;4935628;29;20082;-93
2021/01/22 05:23:06;;;;;;;2.22;0.50;;;10.50;77.90;;;;;;4946372;29;20475;-94
2021/01/22 05:25:34;;;;;;;1.75;0.52;;;10.40;78.20;;;;;;4953728;28;20134;-90
2021/01/22 05:28:03;;;;;;;1.63;0.52;;;10.30;78.20;;;;;;4941362;29;20547;-91
2021/01/22 05:30:31;;;;;;;1.75;0.50;;;10.40;78.80;;;;;;4956852;28;20047;-92
2021/01/22 05:33:15;;;;;;;1.70;0.50;;;10.30;78.50;;;;;;4955929;28;20058;-92
2021/01/22 05:35:41;;;;;;;2.28;0.50;;;10.40;78.20;;;;;;4958849;28;20051;-91
2021/01/22 05:38:08;;;;;;;2.58;0.60;;;10.40;78.00;;;;;;4966710;28;20520;-91
2021/01/22 05:40:35;;;;;;;2.17;0.70;;;10.40;78.00;;;;;;4966577;28;20075;-92
2021/01/22 05:43:03;;;;;;;4.22;0.73;;;10.40;78.30;;;;;;4957497;28;20134;-93
2021/01/22 05:45:41;;;;;;;3.08;0.60;;;10.40;78.10;;;;;;4955838;28;20485;-90
2021/01/22 05:48:21;;;;;;;2.25;0.50;;;10.40;78.10;;;;;;4955271;28;20059;-91
2021/01/22 05:50:51;;;;;;;2.05;0.50;;;10.40;77.90;;;;;;4956023;28;20053;-90
2021/01/22 05:53:19;;;;;;;1.85;0.52;;;10.40;77.80;;;;;;4955797;28;20138;-92
2021/01/22 05:55:47;;;;;;;3.22;0.70;;;10.50;78.10;;;;;;4954794;28;20138;-92
2021/01/22 05:58:29;;;;;;;2.47;0.45;;;10.50;78.20;;;;;;4955265;28;20324;-92
2021/01/22 06:01:07;;;;;;;2.28;0.80;;;10.40;78.20;;;;;;4955497;28;20106;-91
2021/01/22 06:03:33;;;;;;;1.30;0.35;;;10.50;78.30;;;;;;4955448;28;20138;-91
2021/01/22 06:06:00;;;;;;;2.00;0.50;;;10.40;78.40;;;;;;4954646;28;20126;-91
2021/01/22 06:08:27;;;;;;;3.53;0.73;;;10.50;78.40;;;;;;4938431;29;20095;-91
2021/01/22 06:10:54;;;;;;;1.13;0.35;;;10.40;78.50;;;;;;4938387;29;20478;-91
2021/01/22 06:13:26;;;;;;;2.13;0.50;;;10.40;78.60;;;;;;4955432;29;20424;-92
2021/01/22 06:15:57;;;;;;;1.30;0.52;;;10.40;78.80;;;;;;4938732;29;20460;-91
2021/01/22 06:18:30;;;;;;;3.38;0.77;;;10.30;78.90;;;;;;4955417;29;20143;-91
2021/01/22 06:21:10;;;;;;;2.25;0.52;;;10.30;78.80;;;;;;4938474;29;20130;-92
2021/01/22 06:23:40;;;;;;;3.35;1.02;;;10.30;78.80;;;;;;4939088;29;20059;-91
2021/01/22 06:26:07;;;;;;;2.42;0.50;;;10.30;78.80;;;;;;4938820;29;20408;-91
2021/01/22 06:28:35;;;;;;;3.47;1.10;;;10.40;78.30;;;;;;4955579;29;20066;-92
2021/01/22 06:31:05;;;;;;;1.80;0.43;;;10.40;78.40;;;;;;4965307;29;20081;-92
2021/01/22 06:33:33;;;;;;;3.25;0.60;;;10.30;78.60;;;;;;4939264;29;20048;-92
2021/01/22 06:36:01;;;;;;;1.58;0.52;;;10.30;78.40;;;;;;4954319;29;20125;-91
2021/01/22 06:38:31;;;;;;;2.22;0.77;;;10.30;78.50;;;;;;4954702;29;20047;-90
2021/01/22 06:40:58;;;;;;;2.45;0.55;;;10.30;78.10;;;;;;4954392;29;20134;-90
2021/01/22 06:43:26;;;;;;;1.33;0.47;;;10.30;78.20;;;;;;4938272;29;20095;-92
2021/01/22 06:46:02;;;;;;;4.40;0.93;;;10.40;78.00;;;;;;4954773;29;20094;-90
2021/01/22 06:48:28;;;;;;;3.28;0.80;;;10.40;77.40;;;;;;4954724;29;20123;-92
2021/01/22 06:51:15;;;;;;;1.77;0.52;;;10.50;77.30;;;;;;4954735;29;20149;-90
2021/01/22 06:54:03;;;;;;;2.85;0.90;;;10.50;77.10;;;;;;4954515;29;20529;-91
2021/01/22 06:56:30;;;;;;;1.98;0.50;;;10.50;76.60;;;;;;4954702;29;20055;-91
2021/01/22 06:59:25;;;;;;;2.33;0.60;;;10.50;76.50;;;;;;4954311;29;20059;-91
2021/01/22 07:01:53;;;;;;;3.40;0.60;;;10.40;76.80;;;;;;4954640;29;20047;-91
2021/01/22 07:04:40;;;;;;;2.67;0.55;;;10.40;76.70;;;;;;4955044;29;20063;-91
2021/01/22 07:07:08;;;;;;;4.30;0.82;;;10.50;76.40;;;;;;4954421;28;20051;-91
2021/01/22 07:09:51;;;;;;;3.50;0.77;;;10.50;76.40;;;;;;4954221;29;20165;-91
2021/01/22 07:12:40;;;;;;;3.58;0.70;;;10.50;76.40;;;;;;4937563;29;20143;-92
2021/01/22 07:15:29;;;;;;;3.53;0.63;;;10.40;76.60;;;;;;4954108;29;20500;-90
2021/01/22 07:17:59;;;;;;;3.83;0.73;;;10.40;76.60;;;;;;4953959;29;20556;-89
2021/01/22 07:20:29;;;;;;;3.70;0.70;;;10.50;76.10;;;;;;4953899;29;20057;-89
2021/01/22 07:22:57;;;;;;;2.15;0.60;;;10.50;75.80;;;;;;4954146;29;20063;-93
2021/01/22 07:25:35;;;;;;;4.47;0.77;;;10.50;75.60;;;;;;4953865;29;20047;-91
2021/01/22 07:28:21;;;;;;;2.10;0.70;;;10.50;75.70;;;;;;4937729;29;20561;-90
2021/01/22 07:30:50;;;;;;;4.20;0.80;;;10.50;75.60;;;;;;4954735;29;20138;-90
2021/01/22 07:33:38;;;;;;;4.55;0.65;;;10.50;75.50;;;;;;4954944;29;20186;-91
2021/01/22 07:36:09;;;;;;;2.05;0.60;;;10.50;75.20;;;;;;4951847;29;20142;-91
2021/01/22 07:38:38;;;;;;;3.05;0.65;;;10.60;75.10;;;;;;4953795;29;20450;-91
2021/01/22 07:41:06;;;;;;;3.00;0.60;;;10.60;75.10;;;;;;4954993;29;20130;-92
2021/01/22 07:43:33;;;;;;;3.58;0.77;;;10.60;74.90;;;;;;4954526;29;20486;-91
2021/01/22 07:46:08;;;;;;;2.78;0.70;;;10.60;75.20;;;;;;4954738;29;20561;-92
2021/01/22 07:48:35;;;;;;;4.15;0.73;;;10.60;74.90;;;;;;4954429;29;20066;-91
2021/01/22 07:51:32;;;;;;;2.40;0.63;;;10.70;74.70;;;;;;4953911;29;20151;-91
2021/01/22 07:54:01;;;;;;;2.40;0.63;;;10.70;74.80;;;;;;4954134;28;20066;-90
2021/01/22 07:56:34;;;;;;;2.28;0.65;;;10.70;74.70;;;;;;4953477;29;20083;-91
2021/01/22 07:59:01;;;;;;;2.53;0.70;;;10.70;74.60;;;;;;4954030;29;20055;-90
2021/01/22 08:01:28;;;;;;;3.28;0.50;;;10.70;74.60;;;;;;4954508;29;20075;-92
2021/01/22 08:03:54;;;;;;;3.28;0.73;;;10.60;74.40;;;;;;4954535;29;20079;-91
2021/01/22 08:06:22;;;;;;;2.85;0.70;;;10.70;74.30;;;;;;4938049;29;20055;-92
2021/01/22 08:08:49;;;;;;;2.78;0.60;;;10.80;74.40;;;;;;4954108;29;20047;-92
2021/01/22 08:11:19;;;;;;;2.95;0.70;;;10.90;74.30;;;;;;4954034;29;20087;-91
2021/01/22 08:13:46;;;;;;;2.78;0.70;;;10.90;74.00;;;;;;4955701;29;20142;-90
2021/01/22 08:16:14;;;;;;;3.70;0.93;;;10.80;73.80;;;;;;4954808;29;20048;-89
2021/01/22 08:18:45;;;;;;;2.35;0.70;;;10.90;74.00;;;;;;4955271;28;20412;-90
2021/01/22 08:21:12;;;;;;;4.30;0.70;;;10.80;73.90;;;;;;4958058;29;20059;-90
2021/01/22 08:23:42;;;;;;;4.93;0.70;;;11.00;73.70;;;;;;4939646;29;20057;-90
2021/01/22 08:26:10;;;;;;;4.45;0.70;;;11.00;73.20;;;;;;4940325;29;20133;-89
2021/01/22 08:28:40;;;;;;;4.05;0.68;;;11.00;72.80;;;;;;4940394;29;20063;-92
2021/01/22 08:31:07;;;;;;;3.00;0.70;;;11.20;72.60;;;;;;4957616;29;20556;-90
2021/01/22 08:33:35;;;;;;;2.67;0.80;;;11.20;71.70;;;;;;4957707;29;20086;-90
2021/01/22 08:36:03;;;;;;;4.22;0.82;;;11.20;71.60;;;;;;4957679;29;20471;-90
2021/01/22 08:38:30;;;;;;;2.65;0.82;;;11.10;71.60;;;;;;4956231;29;20467;-90
2021/01/22 08:40:58;;;;;;;3.25;0.70;;;11.20;71.60;;;;;;4956488;29;20113;-89
2021/01/22 08:43:24;;;;;;;4.75;0.90;;;11.40;71.50;;;;;;4957316;29;20043;-90
2021/01/22 08:46:07;;;;;;;3.53;1.00;;;11.40;70.70;;;;;;4957192;29;20485;-89
2021/01/22 08:48:36;;;;;;;4.82;0.90;;;11.40;70.60;;;;;;4955366;29;20066;-89
2021/01/22 08:51:03;;;;;;;2.80;0.98;;;11.40;70.00;;;;;;4957026;29;20434;-90
2021/01/22 08:53:30;;;;;;;3.35;0.93;;;11.50;69.70;;;;;;4956477;29;20476;-90
2021/01/22 08:56:14;;;;;;;4.32;0.80;;;11.60;69.70;;;;;;4957266;29;20051;-89
2021/01/22 08:59:13;;;;;;;2.95;0.75;;;11.50;69.50;;;;;;4956693;29;20083;-90
2021/01/22 09:01:56;;;;;;;4.03;0.80;;;11.70;69.00;;;;;;4904013;29;20087;-90
2021/01/22 09:04:26;;;;;;;3.92;0.73;;;11.70;68.60;;;;;;4925113;29;20151;-89
2021/01/22 09:06:56;;;;;;;3.78;1.02;;;11.70;68.20;;;;;;4946514;29;20141;-90
2021/01/22 09:09:46;;;;;;;3.80;0.80;;;11.80;68.50;;;;;;4957344;29;20512;-89
2021/01/22 09:12:19;;;;;;;3.30;0.90;;;11.80;68.30;;;;;;4954067;29;20110;-90
2021/01/22 09:14:55;;;;;;;3.03;0.70;;;11.90;68.40;;;;;;4940393;29;20079;-88
2021/01/22 09:17:29;;;;;;;3.75;0.90;;;11.80;68.40;;;;;;4956939;29;20051;-89
2021/01/22 09:20:01;;;;;;;4.43;0.73;;;11.80;69.20;;;;;;4956961;29;20113;-89
2021/01/22 09:22:31;;;;;;;4.07;0.80;;;11.70;69.20;;;;;;4957366;29;20099;-89
2021/01/22 09:24:58;;;;;;;5.43;0.70;;;11.70;69.10;;;;;;4964395;29;20048;-89
2021/01/22 09:27:26;;;;;;;3.47;0.77;;;11.90;69.20;;;;;;4948384;29;20066;-89
2021/01/22 09:29:53;;;;;;;4.65;0.80;;;11.80;69.00;;;;;;4959694;28;20078;-89
2021/01/22 09:32:20;;;;;;;2.38;0.77;;;12.00;69.30;;;;;;4956590;29;20103;-90
2021/01/22 09:34:47;;;;;;;4.30;1.10;;;12.00;69.40;;;;;;4961778;29;20524;-88
2021/01/22 09:37:14;;;;;;;3.45;0.95;;;12.10;69.40;;;;;;4959649;29;20062;-89
2021/01/22 09:39:40;;;;;;;2.25;1.05;;;12.10;69.60;;;;;;4957081;29;20105;-89
2021/01/22 09:42:08;;;;;;;3.17;1.17;;;12.10;69.60;;;;;;4956899;29;20078;-89
2021/01/22 09:44:36;;;;;;;2.80;1.10;;;12.10;69.80;;;;;;4957131;29;20134;-89
2021/01/22 09:47:02;;;;;;;3.83;1.10;;;12.10;69.60;;;;;;4954996;29;20051;-89
2021/01/22 09:49:29;;;;;;;3.30;1.00;;;12.20;69.70;;;;;;4939386;29;20134;-88
2021/01/22 09:51:56;;;;;;;2.88;0.82;;;12.20;69.50;;;;;;4939414;29;20071;-89
2021/01/22 09:54:22;;;;;;;4.00;0.93;;;12.40;69.50;;;;;;4939439;29;20139;-88
2021/01/22 09:56:49;;;;;;;2.83;0.90;;;12.50;69.20;;;;;;4957109;29;20123;-89
2021/01/22 09:59:16;;;;;;;2.03;0.73;;;12.50;68.40;;;;;;4956690;29;20086;-88
2021/01/22 10:01:44;;;;;;;3.22;1.10;;;12.50;68.30;;;;;;4957172;29;20079;-89
2021/01/22 10:04:10;;;;;;;4.40;1.20;;;12.60;68.40;;;;;;4939291;29;20090;-89
2021/01/22 10:06:37;;;;;;;4.03;1.20;;;12.60;68.70;;;;;;4940445;29;20098;-89
2021/01/22 10:09:04;;;;;;;3.72;0.95;;;12.60;68.60;;;;;;4956994;29;20145;-90
2021/01/22 10:11:31;;;;;;;3.30;0.90;;;12.60;68.60;;;;;;4958191;29;20051;-89
2021/01/22 10:13:59;;;;;;;1.85;0.88;;;12.70;68.70;;;;;;4941007;29;20545;-90
2021/01/22 10:16:26;;;;;;;2.25;0.60;;;12.70;67.90;;;;;;4946798;29;20059;-90
2021/01/22 10:18:54;;;;;;;0.95;0.50;;;12.70;68.50;;;;;;4963532;29;20058;-90
2021/01/22 10:21:21;;;;;;;2.28;0.60;;;12.60;67.90;;;;;;4964343;29;20521;-89
2021/01/22 10:23:50;;;;;;;1.73;0.50;;;12.80;68.60;;;;;;4964128;29;20082;-89
2021/01/22 10:26:17;;;;;;;1.08;0.52;;;12.70;68.20;;;;;;4964967;29;20417;-88
2021/01/22 10:28:45;;;;;;;1.75;0.70;;;12.70;68.70;;;;;;4963935;29;20109;-89
2021/01/22 10:31:12;;;;;;;1.48;0.50;;;12.70;68.50;;;;;;4964711;29;20054;-89
2021/01/22 10:33:39;;;;;;;0.95;0.40;;;12.60;68.80;;;;;;4963728;29;20086;-90
2021/01/22 10:36:09;;;;;;;1.80;0.50;;;12.70;69.00;;;;;;4962772;29;20114;-90
2021/01/22 10:38:38;;;;;;;1.60;0.60;;;12.70;69.50;;;;;;4963262;29;20074;-89
2021/01/22 10:41:05;;;;;;;2.33;0.60;;;12.60;69.50;;;;;;4963713;28;20141;-89
2021/01/22 10:43:32;;;;;;;1.67;0.70;;;12.70;69.10;;;;;;4945037;29;20075;-89
2021/01/22 10:45:59;;;;;;;3.05;0.73;;;12.70;68.70;;;;;;4941205;29;20528;-89
2021/01/22 10:48:26;;;;;;;2.47;0.80;;;12.70;68.40;;;;;;4957994;29;20059;-88
2021/01/22 10:50:54;;;;;;;1.40;0.47;;;12.60;68.20;;;;;;4957100;29;20051;-89
2021/01/22 10:53:23;;;;;;;2.00;0.60;;;12.80;68.30;;;;;;4957552;29;20087;-87
2021/01/22 10:55:50;;;;;;;1.90;0.75;;;13.10;67.70;;;;;;4938848;29;20130;-87
2021/01/22 10:58:17;;;;;;;1.60;0.50;;;13.10;67.00;;;;;;4956926;29;20090;-88
2021/01/22 11:00:44;;;;;;;2.28;0.70;;;13.20;65.70;;;;;;4957510;29;20131;-87
2021/01/22 11:03:11;;;;;;;1.45;0.50;;;13.20;65.60;;;;;;4940047;29;20075;-88
2021/01/22 11:05:37;;;;;;;2.00;0.60;;;13.30;65.20;;;;;;4949837;29;20102;-88
2021/01/22 11:08:06;;;;;;;1.55;0.50;;;13.40;64.80;;;;;;4954345;28;20066;-87
2021/01/22 11:10:33;;;;;;;1.48;0.52;;;13.40;63.30;;;;;;4954518;29;20055;-87
2021/01/22 11:13:00;;;;;;;2.53;0.60;;;13.60;62.60;;;;;;4955256;28;20101;-88
2021/01/22 11:15:27;;;;;;;1.48;0.60;;;13.60;62.10;;;;;;4954495;28;20097;-87
2021/01/22 11:17:54;;;;;;;1.88;0.50;;;13.60;60.30;;;;;;4954133;29;20440;-88
2021/01/22 11:20:21;;;;;;;1.10;0.40;;;14.00;58.90;;;;;;4954054;29;20134;-87
2021/01/22 11:22:48;;;;;;;1.63;0.43;;;14.10;57.00;;;;;;4953867;28;20051;-87
2021/01/22 11:25:17;;;;;;;1.50;0.50;;;14.10;56.00;;;;;;4955448;28;20059;-88
2021/01/22 11:27:46;;;;;;;1.80;0.50;;;14.10;56.00;;;;;;4945319;28;20051;-87
2021/01/22 11:30:15;;;;;;;3.15;0.63;;;14.00;56.00;;;;;;4943094;29;20095;-86
2021/01/22 11:32:42;;;;;;;0.95;0.40;;;14.20;55.80;;;;;;4951321;29;20189;-86
2021/01/22 11:35:12;;;;;;;1.60;0.50;;;14.30;55.20;;;;;;4936657;28;20047;-85
2021/01/22 11:37:39;;;;;;;0.70;0.30;;;14.40;54.60;;;;;;4934333;29;20051;-85
2021/01/22 11:40:08;;;;;;;1.45;0.50;;;14.40;54.40;;;;;;4948014;29;20470;-88
2021/01/22 11:42:35;;;;;;;1.85;0.50;;;14.50;54.00;;;;;;4954419;28;20098;-87
2021/01/22 11:45:04;;;;;;;2.47;0.43;;;14.30;53.20;;;;;;4955050;28;20405;-87
2021/01/22 11:47:31;;;;;;;1.15;0.40;;;14.40;53.60;;;;;;4955523;28;20079;-87
2021/01/22 11:49:58;;;;;;;1.33;0.57;;;14.50;53.60;;;;;;4948350;28;20095;-87
2021/01/22 11:52:24;;;;;;;1.25;0.47;;;14.50;53.00;;;;;;4936763;29;20063;-89
2021/01/22 11:54:51;;;;;;;1.25;0.50;;;14.40;52.80;;;;;;4940464;29;20126;-89
2021/01/22 11:57:18;;;;;;;2.05;0.60;;;14.50;52.70;;;;;;4944565;29;20146;-89
2021/01/22 11:59:45;;;;;;;0.88;0.30;;;14.40;51.90;;;;;;4971692;28;20121;-91
2021/01/22 12:02:12;;;;;;;1.63;0.47;;;14.60;51.90;;;;;;4951330;28;20457;-89
2021/01/22 12:04:39;;;;;;;0.70;0.20;;;14.70;51.80;;;;;;4938151;29;20135;-89
2021/01/22 12:07:05;;;;;;;1.05;0.40;;;14.80;50.80;;;;;;4939652;29;20116;-89
2021/01/22 12:09:32;;;;;;;2.13;0.30;;;14.90;50.40;;;;;;4947427;29;20055;-89
2021/01/22 12:11:59;;;;;;;1.48;0.40;;;14.90;49.70;;;;;;4923055;29;20052;-88
2021/01/22 12:14:25;;;;;;;1.23;0.38;;;14.90;49.30;;;;;;4941077;29;20115;-88
2021/01/22 12:16:52;;;;;;;0.95;0.30;;;15.00;48.90;;;;;;4937770;29;20048;-89
2021/01/22 12:19:20;;;;;;;1.35;0.30;;;14.90;49.00;;;;;;4922727;29;20079;-88
2021/01/22 12:21:46;;;;;;;1.35;0.40;;;14.80;48.90;;;;;;4955067;29;20043;-90
2021/01/22 12:24:13;;;;;;;1.20;0.47;;;14.90;48.90;;;;;;4962883;29;20130;-88
2021/01/22 12:26:40;;;;;;;1.75;0.32;;;15.10;48.70;;;;;;4953117;29;20059;-89
2021/01/22 12:29:07;;;;;;;1.38;0.47;;;14.90;48.80;;;;;;4942506;29;20058;-88
2021/01/22 12:31:33;;;;;;;1.80;0.50;;;14.90;49.00;;;;;;4948448;29;20544;-88
2021/01/22 12:34:00;;;;;;;2.63;0.60;;;14.80;49.10;;;;;;4943508;29;20489;-87
2021/01/22 12:36:28;;;;;;;2.28;0.57;;;15.00;49.00;;;;;;4949913;29;20048;-87
2021/01/22 12:38:54;;;;;;;1.77;0.52;;;14.90;49.50;;;;;;4952952;29;20079;-88
2021/01/22 12:41:21;;;;;;;1.75;0.68;;;15.10;48.80;;;;;;4945815;29;20051;-87
2021/01/22 12:43:47;;;;;;;1.10;0.32;;;15.00;48.80;;;;;;4956155;29;20126;-86
2021/01/22 12:46:14;;;;;;;2.50;0.50;;;14.90;48.20;;;;;;4955522;29;20170;-87
2021/01/22 12:48:41;;;;;;;1.38;0.40;;;15.20;49.00;;;;;;4958111;29;20048;-89
2021/01/22 12:51:07;;;;;;;1.38;0.28;;;15.20;48.10;;;;;;4957667;29;20504;-89
2021/01/22 12:53:35;;;;;;;2.20;0.60;;;15.20;48.10;;;;;;4957075;29;20146;-87
2021/01/22 12:56:02;;;;;;;0.90;0.30;;;15.20;47.80;;;;;;4957804;29;20063;-88
2021/01/22 12:58:28;;;;;;;4.28;0.50;;;14.90;47.50;;;;;;4943298;29;20413;-86